London, Canada
Current Conditions -  °F | °C
As of 7:00 PM on Tuesday 21 Oct 2014 (Local Time) from CYXU Reporting Station
Overcast Overcast  
Wind Chill:   Ceiling: 1500
Heat Index:   Visibility: 15mi
Dew Point:   Wind: 16mph
Humidity: 87%   Direction: 10°N
Pressure: 30.06"   Gusts: 22mph
Location:  42.99°N, 81.25°W
Report Text: CYXU 212300Z 01014G19KT 15SM OVC015 07/05 A3006 RMK SC8 SLP186
Loading
Personal Weather Stations






























Interactive Weather Map
Tropical Storm Tracking
New forecast layout! Learn more

10-Day Weather Forecast

Advertisements
Track Severe Weather on mobile